createdAt,value
2023-02-14T05:09:29.913Z,102023.94
2023-02-14T05:12:32.329Z,102023.75
2023-02-14T05:15:36.213Z,102031.38
2023-02-14T05:18:39.819Z,102035.62
2023-02-14T05:21:41.960Z,102032.25
2023-02-14T05:24:44.306Z,102024.44
2023-02-14T05:27:46.398Z,102031.47
2023-02-14T05:30:50.743Z,102032.94
2023-02-14T05:33:52.858Z,102031.25
2023-02-14T05:36:55.283Z,102029.25
2023-02-14T05:39:57.489Z,102030.66
2023-02-14T05:43:00.321Z,102034.47
2023-02-14T05:46:02.476Z,102031.06
2023-02-14T05:49:04.912Z,102033.09
2023-02-14T05:52:07.012Z,102035.22
2023-02-14T05:55:10.291Z,102040.81
2023-02-14T05:58:12.561Z,102046.19
2023-02-14T06:01:15.015Z,102039.97
2023-02-14T06:04:17.384Z,102045.88
2023-02-14T06:07:19.632Z,102039.22
2023-02-14T06:10:23.926Z,102043.25
2023-02-14T06:13:26.091Z,102054.19
2023-02-14T06:16:28.536Z,102057.19
2023-02-14T06:19:30.716Z,102054.25
2023-02-14T06:22:33.343Z,102063.97
2023-02-14T06:25:35.720Z,102064.25
2023-02-14T06:28:41.458Z,102070.66
2023-02-14T06:31:43.866Z,102076.06
2023-02-14T06:34:46.309Z,102078.28
2023-02-14T06:37:48.746Z,102082.59
2023-02-14T06:40:51.128Z,102084.03
2023-02-14T06:43:53.315Z,102088.28
2023-02-14T06:46:55.731Z,102093.38
2023-02-14T06:49:59.951Z,102094.22
2023-02-14T06:53:02.384Z,102098.66
2023-02-14T06:56:05.165Z,102096.44
2023-02-14T06:59:07.843Z,102102.88
2023-02-14T07:02:12.647Z,102109.22
2023-02-14T07:05:16.238Z,102108.44
2023-02-14T07:08:18.870Z,102104.19
2023-02-14T07:11:21.284Z,102109.84
2023-02-14T07:14:23.605Z,102105.84
2023-02-14T07:17:26.073Z,102100.69
2023-02-14T07:20:28.497Z,102097.87
2023-02-14T07:23:30.908Z,102097.63
2023-02-14T07:26:33.045Z,102100.50
2023-02-14T07:29:36.057Z,102096.84
2023-02-14T07:32:39.331Z,102099.59
2023-02-14T07:35:41.808Z,102106.47
2023-02-14T07:38:44.797Z,102107.72
2023-02-14T07:41:47.763Z,102111.13
2023-02-14T07:44:51.973Z,102108.94
2023-02-14T07:47:55.548Z,102117.22
2023-02-14T07:50:59.032Z,102125.41
2023-02-14T07:54:01.645Z,102118.94
2023-02-14T07:57:03.958Z,102126.69
2023-02-14T08:00:07.517Z,102130.06
2023-02-14T08:03:15.473Z,102127.41
2023-02-14T08:06:19.486Z,102130.69
2023-02-14T08:09:25.576Z,102119.62
2023-02-14T08:12:46.410Z,102118.22
2023-02-14T08:16:07.678Z,102127.31
2023-02-14T08:19:10.300Z,102118.94
2023-02-14T08:22:12.532Z,102117.03
2023-02-14T08:25:14.997Z,102127.31
2023-02-14T08:28:18.007Z,102116.03
2023-02-14T08:31:35.521Z,102118.13
2023-02-14T08:34:37.970Z,102120.28
2023-02-14T08:37:40.667Z,102121.16
2023-02-14T08:40:43.315Z,102116.44
2023-02-14T08:43:45.714Z,102120.00
2023-02-14T08:46:48.061Z,102121.09
2023-02-14T08:49:50.743Z,102122.97
2023-02-14T08:52:52.821Z,102117.38
2023-02-14T08:55:55.226Z,102122.91
2023-02-14T08:58:57.379Z,102123.56
2023-02-14T09:01:59.841Z,102121.25
2023-02-14T09:05:02.001Z,102131.59
2023-02-14T09:08:05.133Z,102122.69
2023-02-14T09:11:14.381Z,102123.78
2023-02-14T09:14:17.205Z,102122.25
2023-02-14T09:17:19.469Z,102113.81
2023-02-14T09:20:22.295Z,102115.63
2023-02-14T09:23:24.581Z,102112.19
2023-02-14T09:26:27.450Z,102120.25
2023-02-14T09:29:30.639Z,102113.81
2023-02-14T09:32:34.135Z,102110.44
2023-02-14T09:35:54.642Z,102113.50
2023-02-14T09:38:57.021Z,102124.06
2023-02-14T09:42:24.267Z,102130.56
2023-02-14T09:45:28.298Z,102119.97
2023-02-14T09:48:41.662Z,102125.44
2023-02-14T09:51:49.130Z,102124.31
2023-02-14T09:54:55.422Z,102122.56
2023-02-14T09:58:13.509Z,102122.13
2023-02-14T10:01:26.318Z,102128.53
2023-02-14T10:04:33.539Z,102121.25
2023-02-14T10:07:50.356Z,102115.47
2023-02-14T10:11:07.005Z,102114.63
2023-02-14T10:14:17.137Z,102119.53
2023-02-14T10:17:44.834Z,102112.06
2023-02-14T10:20:54.534Z,102112.78
2023-02-14T10:24:15.202Z,102109.78
2023-02-14T10:27:43.900Z,102107.50
2023-02-14T10:31:02.275Z,102103.03
2023-02-14T10:34:24.986Z,102100.41
2023-02-14T10:37:39.808Z,102094.87
2023-02-14T10:41:19.816Z,102091.37
2023-02-14T10:44:50.231Z,102097.87
2023-02-14T10:48:17.338Z,102098.47
2023-02-14T10:51:33.467Z,102093.31
2023-02-14T10:54:43.259Z,102082.53
2023-02-14T10:57:51.060Z,102076.63
2023-02-14T11:00:58.228Z,102080.81
2023-02-14T11:04:06.259Z,102073.00
2023-02-14T11:07:13.971Z,102073.91
2023-02-14T11:10:21.544Z,102070.69
2023-02-14T11:13:34.191Z,102070.91
2023-02-14T11:16:37.547Z,102066.88
2023-02-14T11:19:39.839Z,102073.19
2023-02-14T11:22:42.249Z,102061.59
2023-02-14T11:25:51.246Z,102065.47
2023-02-14T11:29:02.465Z,102064.44
2023-02-14T11:32:10.567Z,102063.34
2023-02-14T11:35:24.231Z,102054.38
2023-02-14T11:38:35.871Z,102069.81
2023-02-14T11:42:12.744Z,102069.44
2023-02-14T11:45:38.379Z,102061.97
2023-02-14T11:49:04.943Z,102055.97
2023-02-14T11:52:15.709Z,102059.25
2023-02-14T11:55:28.221Z,102057.91
2023-02-14T11:58:39.120Z,102051.13
2023-02-14T12:01:45.356Z,102051.06
2023-02-14T12:04:52.839Z,102052.31
2023-02-14T12:08:02.129Z,102054.91
2023-02-14T12:11:19.871Z,102054.72
2023-02-14T12:14:24.137Z,102048.94
2023-02-14T12:17:37.545Z,102045.44
2023-02-14T12:20:45.696Z,102043.19
2023-02-14T12:23:56.741Z,102036.56
2023-02-14T12:31:14.683Z,102040.78
2023-02-14T12:34:18.274Z,102033.47
2023-02-14T12:38:03.824Z,102030.66
2023-02-14T12:46:08.936Z,102017.53
2023-02-14T12:49:38.900Z,102018.31
2023-02-14T12:53:01.297Z,102013.09
2023-02-14T12:56:38.230Z,102010.19
2023-02-14T13:00:04.539Z,102011.00
2023-02-14T13:03:28.488Z,102000.22
2023-02-14T13:06:32.869Z,101998.88
2023-02-14T13:09:59.266Z,101997.94
2023-02-14T13:13:21.004Z,101994.66
2023-02-14T13:16:35.675Z,101998.34
2023-02-14T13:19:52.617Z,101998.09
2023-02-14T13:23:03.016Z,101998.78
2023-02-14T13:26:22.550Z,101985.84
2023-02-14T13:29:29.579Z,101997.25
2023-02-14T13:32:38.960Z,101993.44
2023-02-14T13:35:41.974Z,102000.22
2023-02-14T13:38:56.688Z,101998.19
2023-02-14T13:41:59.405Z,101994.22
2023-02-14T13:45:01.659Z,101990.13
2023-02-14T13:48:07.102Z,101998.47
2023-02-14T13:51:10.556Z,101992.69
2023-02-14T13:54:28.176Z,101992.09
2023-02-14T13:57:38.367Z,101985.31
2023-02-14T14:00:43.204Z,101992.09
2023-02-14T14:03:59.168Z,101989.16
2023-02-14T14:07:04.366Z,101999.06
2023-02-14T14:10:11.772Z,101987.66
2023-02-14T14:13:46.581Z,101989.59
2023-02-14T14:16:59.297Z,101997.00
2023-02-14T14:20:06.200Z,101995.50
2023-02-14T14:23:29.928Z,101992.06
2023-02-14T14:26:39.484Z,101993.56
2023-02-14T14:29:50.563Z,101992.09
2023-02-14T14:32:52.707Z,101993.69
2023-02-14T14:36:07.933Z,101994.66
2023-02-14T14:39:11.339Z,101988.34
2023-02-14T14:42:15.493Z,101990.19
2023-02-14T14:45:29.490Z,101985.13
2023-02-14T14:48:37.582Z,101988.12
2023-02-14T14:51:40.013Z,101977.09
2023-02-14T14:54:43.803Z,101987.38
2023-02-14T14:57:54.212Z,101979.69
2023-02-14T15:00:56.686Z,101984.34
2023-02-14T15:04:30.453Z,101976.88
2023-02-14T15:07:34.645Z,101981.72
2023-02-14T15:10:36.937Z,101983.88
2023-02-14T15:13:53.348Z,101989.34
2023-02-14T15:17:00.554Z,101985.94
2023-02-14T15:20:08.295Z,101981.69
2023-02-14T15:23:18.923Z,101985.53
2023-02-14T15:26:31.604Z,101984.88
2023-02-14T15:29:33.763Z,101987.34
2023-02-14T15:32:38.044Z,101983.72
2023-02-14T15:35:42.293Z,101989.09
2023-02-14T15:38:45.656Z,101988.41
2023-02-14T15:41:47.846Z,101987.28
2023-02-14T15:44:50.234Z,101985.87
2023-02-14T15:47:55.320Z,101991.31
2023-02-14T15:51:00.287Z,102000.56
2023-02-14T15:54:07.463Z,101994.44
2023-02-14T15:57:22.530Z,101988.16
2023-02-14T16:00:25.539Z,101996.03
2023-02-14T16:03:33.790Z,101992.44
2023-02-14T16:06:44.317Z,101985.16
2023-02-14T16:09:46.920Z,102002.47
2023-02-14T16:13:03.000Z,102004.03
2023-02-14T16:16:08.171Z,102002.66
2023-02-14T16:19:31.116Z,102010.22
2023-02-14T16:22:38.231Z,102003.53
2023-02-14T16:25:41.248Z,102010.13
2023-02-14T16:28:43.633Z,102013.78
2023-02-14T16:35:18.378Z,102023.59
2023-02-14T16:38:21.777Z,102031.69
2023-02-14T16:41:29.363Z,102032.28
2023-02-14T16:44:31.669Z,102035.78
2023-02-14T16:47:34.028Z,102031.66
